Time;durP1;ratioP1;P1;durP2;ratioP2;P2;SDS_P1;SDS_P2;PMS_P1;PMS_P2;Temp;Humidity;BMP_temperature;BMP_pressure;BME280_temperature;BME280_humidity;BME280_pressure;Samples;Min_cycle;Max_cycle;Signal;HPM_P1;HPM_P2
2023/09/20 00:00:30;;;;;;;9.20;3.53;;;16.90;99.90;;;;;;5001323;28;20045;-75
2023/09/20 00:02:56;;;;;;;11.80;3.92;;;16.90;99.90;;;;;;5018558;28;20050;-75
2023/09/20 00:05:22;;;;;;;10.77;3.85;;;16.90;99.90;;;;;;5014111;28;20050;-75
2023/09/20 00:07:54;;;;;;;10.68;4.30;;;16.90;99.90;;;;;;5013284;28;20143;-74
2023/09/20 00:10:21;;;;;;;12.85;4.55;;;16.80;99.90;;;;;;4981816;28;20057;-78
2023/09/20 00:12:47;;;;;;;12.30;3.85;;;16.80;99.90;;;;;;4997309;28;20125;-75
2023/09/20 00:15:13;;;;;;;9.43;3.70;;;16.90;99.90;;;;;;5012517;28;20189;-75
2023/09/20 00:17:39;;;;;;;11.40;3.97;;;16.90;99.90;;;;;;5012585;28;20042;-74
2023/09/20 00:20:12;;;;;;;7.00;3.58;;;16.80;99.90;;;;;;4996265;28;20053;-76
2023/09/20 00:22:43;;;;;;;10.25;3.92;;;16.80;99.90;;;;;;4996713;28;20046;-75
2023/09/20 00:25:11;;;;;;;9.32;4.30;;;16.80;99.90;;;;;;5012484;28;20181;-75
2023/09/20 00:27:38;;;;;;;12.40;4.65;;;16.80;99.90;;;;;;4996371;28;20132;-75
2023/09/20 00:30:14;;;;;;;12.60;4.05;;;16.80;99.90;;;;;;5028676;28;20042;-75
2023/09/20 00:32:42;;;;;;;11.98;4.30;;;16.80;99.90;;;;;;5012440;28;20415;-75
2023/09/20 00:35:16;;;;;;;7.65;3.63;;;16.80;99.90;;;;;;5011494;28;20049;-75
2023/09/20 00:37:44;;;;;;;9.13;3.95;;;16.80;99.90;;;;;;5012645;28;20057;-75
2023/09/20 00:40:21;;;;;;;14.68;4.10;;;16.80;99.90;;;;;;5012173;28;20052;-76
2023/09/20 00:42:50;;;;;;;9.43;3.88;;;16.80;99.90;;;;;;4996207;28;20104;-76
2023/09/20 00:45:18;;;;;;;13.15;4.40;;;16.80;99.90;;;;;;4996008;28;20366;-75
2023/09/20 00:47:57;;;;;;;9.60;3.70;;;16.80;99.90;;;;;;4996159;28;20049;-76
2023/09/20 00:50:29;;;;;;;12.45;4.70;;;16.80;99.90;;;;;;5012271;28;20081;-76
2023/09/20 00:52:56;;;;;;;12.60;4.10;;;16.80;99.90;;;;;;5012062;28;20037;-76
2023/09/20 00:55:24;;;;;;;12.63;4.97;;;16.80;99.90;;;;;;4995513;28;20068;-76
2023/09/20 00:57:53;;;;;;;8.23;3.95;;;16.80;99.90;;;;;;5012125;28;20053;-76
2023/09/20 01:00:27;;;;;;;6.80;3.75;;;16.90;99.90;;;;;;5011653;28;20049;-76
2023/09/20 01:02:55;;;;;;;10.15;3.75;;;16.90;99.90;;;;;;5012201;28;20084;-76
2023/09/20 01:05:22;;;;;;;10.20;3.92;;;16.90;99.90;;;;;;5011773;28;20628;-77
2023/09/20 01:07:52;;;;;;;12.25;4.53;;;16.90;99.90;;;;;;5011858;28;20391;-75
2023/09/20 01:10:23;;;;;;;9.43;4.07;;;16.90;99.90;;;;;;5011155;28;20407;-75
2023/09/20 01:12:54;;;;;;;12.15;4.22;;;16.90;99.90;;;;;;5011880;28;20399;-75
2023/09/20 01:15:21;;;;;;;16.88;5.00;;;16.90;99.90;;;;;;4979819;28;20100;-75
2023/09/20 01:17:48;;;;;;;12.43;4.72;;;16.90;99.90;;;;;;4996852;28;20173;-76
2023/09/20 01:20:15;;;;;;;9.20;4.38;;;16.90;99.90;;;;;;5011359;28;20427;-78
2023/09/20 01:22:41;;;;;;;11.63;4.63;;;16.80;99.90;;;;;;5012103;28;20049;-76
2023/09/20 01:25:17;;;;;;;11.57;3.88;;;16.90;99.90;;;;;;5011556;28;20038;-76
2023/09/20 01:27:43;;;;;;;13.45;4.45;;;16.90;99.90;;;;;;5011758;28;20049;-76
2023/09/20 01:30:10;;;;;;;8.75;4.47;;;16.90;99.90;;;;;;4995227;28;20120;-75
2023/09/20 01:32:36;;;;;;;10.60;3.78;;;16.90;99.90;;;;;;4994743;28;20100;-74
2023/09/20 01:35:03;;;;;;;14.75;4.78;;;16.90;99.90;;;;;;5011589;28;20060;-75
2023/09/20 01:37:28;;;;;;;11.27;4.50;;;16.90;99.90;;;;;;5011409;28;20050;-75
2023/09/20 01:39:54;;;;;;;16.65;4.65;;;16.90;99.90;;;;;;5028121;28;20064;-75
2023/09/20 01:42:21;;;;;;;12.80;4.25;;;16.90;99.90;;;;;;4978773;28;20072;-79
2023/09/20 01:44:49;;;;;;;15.25;4.22;;;16.90;99.90;;;;;;4995619;28;20140;-75
2023/09/20 01:47:15;;;;;;;8.43;3.50;;;16.90;99.90;;;;;;4998797;28;20081;-75
2023/09/20 01:49:42;;;;;;;12.48;4.13;;;16.90;99.90;;;;;;5015826;28;20314;-75
2023/09/20 01:52:08;;;;;;;13.90;4.40;;;16.90;99.90;;;;;;5015393;28;20058;-81
2023/09/20 01:54:35;;;;;;;14.55;4.18;;;16.90;99.90;;;;;;4999452;28;20102;-76
2023/09/20 01:57:01;;;;;;;11.48;4.20;;;16.90;99.90;;;;;;5015779;28;20042;-76
2023/09/20 01:59:27;;;;;;;15.95;3.63;;;16.90;99.90;;;;;;5016613;28;20052;-76
2023/09/20 02:01:53;;;;;;;12.20;4.32;;;16.90;99.90;;;;;;4983186;28;20049;-77
2023/09/20 02:04:20;;;;;;;17.25;4.20;;;16.90;99.90;;;;;;4998995;28;20054;-76
2023/09/20 02:06:46;;;;;;;10.70;3.72;;;17.00;99.90;;;;;;5015603;28;20376;-76
2023/09/20 02:09:13;;;;;;;11.95;4.00;;;17.00;99.90;;;;;;5014720;28;20064;-76
2023/09/20 02:11:39;;;;;;;18.75;4.82;;;17.00;99.90;;;;;;5015282;28;20057;-76
2023/09/20 02:14:05;;;;;;;10.70;3.92;;;17.00;99.90;;;;;;5001711;28;20056;-75
2023/09/20 02:16:33;;;;;;;13.45;4.00;;;17.00;99.90;;;;;;5029869;28;20037;-76
2023/09/20 02:18:58;;;;;;;12.20;4.50;;;17.00;99.90;;;;;;5007612;28;20092;-76
2023/09/20 02:21:24;;;;;;;14.82;4.70;;;17.00;99.90;;;;;;5017231;28;20042;-76
2023/09/20 02:23:56;;;;;;;15.27;6.55;;;17.00;99.90;;;;;;4999260;28;20460;-76
2023/09/20 02:26:22;;;;;;;17.80;10.10;;;17.00;99.90;;;;;;4983199;28;20525;-76
2023/09/20 02:28:48;;;;;;;22.48;10.48;;;17.00;99.90;;;;;;4998597;28;20054;-76
2023/09/20 02:31:18;;;;;;;18.35;8.82;;;17.10;99.90;;;;;;4982303;28;20050;-81
2023/09/20 02:33:44;;;;;;;15.38;6.70;;;17.10;99.90;;;;;;5015807;28;20057;-76
2023/09/20 02:36:11;;;;;;;14.02;5.82;;;17.10;99.90;;;;;;4998474;28;20484;-76
2023/09/20 02:38:37;;;;;;;16.25;4.57;;;17.10;99.90;;;;;;4998223;28;20092;-76
2023/09/20 02:41:03;;;;;;;9.63;4.00;;;17.10;99.90;;;;;;4998102;28;20057;-76
2023/09/20 02:43:29;;;;;;;13.02;4.22;;;17.10;99.90;;;;;;5014168;28;20054;-77
2023/09/20 02:45:59;;;;;;;16.80;6.13;;;17.10;99.90;;;;;;4997463;28;20049;-76
2023/09/20 02:48:26;;;;;;;21.02;11.85;;;17.10;99.90;;;;;;5014125;28;20446;-77
2023/09/20 02:50:53;;;;;;;23.17;12.20;;;17.10;99.90;;;;;;5014464;28;20391;-76
2023/09/20 02:53:21;;;;;;;18.73;8.57;;;17.10;99.90;;;;;;5013847;28;20550;-77
2023/09/20 02:55:47;;;;;;;15.63;6.63;;;17.20;99.90;;;;;;4998238;28;20404;-77
2023/09/20 02:58:13;;;;;;;17.65;5.53;;;17.20;99.90;;;;;;5013290;28;20046;-76
2023/09/20 03:00:46;;;;;;;11.38;4.65;;;17.20;99.90;;;;;;4981557;28;20053;-77
2023/09/20 03:03:15;;;;;;;11.50;3.83;;;17.20;99.90;;;;;;5032045;28;20072;-77
2023/09/20 03:05:41;;;;;;;11.02;4.07;;;17.20;99.90;;;;;;5013944;28;20050;-76
2023/09/20 03:08:13;;;;;;;9.40;3.47;;;17.20;99.90;;;;;;5014202;28;20096;-76
2023/09/20 03:10:43;;;;;;;11.90;3.80;;;17.20;99.90;;;;;;4997577;28;20057;-76
2023/09/20 03:13:11;;;;;;;10.70;3.35;;;17.20;99.90;;;;;;5014297;28;20058;-77
2023/09/20 03:15:43;;;;;;;10.30;3.45;;;17.20;99.90;;;;;;4997298;28;20048;-76
2023/09/20 03:18:10;;;;;;;10.75;3.17;;;17.20;99.90;;;;;;4997667;28;20054;-77
2023/09/20 03:20:38;;;;;;;9.13;3.60;;;17.20;99.90;;;;;;4997223;28;20054;-76
2023/09/20 03:23:04;;;;;;;10.50;3.85;;;17.20;99.90;;;;;;4997859;28;20508;-76
2023/09/20 03:25:37;;;;;;;5.95;3.00;;;17.20;99.90;;;;;;5013417;28;20484;-76
2023/09/20 03:28:08;;;;;;;8.77;3.65;;;17.20;99.90;;;;;;5014673;28;20396;-76
2023/09/20 03:30:34;;;;;;;12.07;3.38;;;17.20;99.90;;;;;;5013506;28;20112;-76
2023/09/20 03:33:00;;;;;;;10.30;3.30;;;17.20;99.90;;;;;;5013689;28;20558;-76
2023/09/20 03:35:27;;;;;;;7.35;3.17;;;17.20;99.90;;;;;;5029964;28;20046;-76
2023/09/20 03:37:54;;;;;;;10.40;3.08;;;17.30;99.90;;;;;;5013076;28;20120;-76
2023/09/20 03:40:21;;;;;;;9.70;3.53;;;17.30;99.90;;;;;;4997256;28;20081;-76
2023/09/20 03:42:48;;;;;;;12.27;3.83;;;17.30;99.90;;;;;;5012982;28;20038;-75
2023/09/20 03:45:16;;;;;;;9.15;3.22;;;17.30;99.90;;;;;;5013466;28;20038;-76
2023/09/20 03:47:47;;;;;;;7.47;3.40;;;17.30;99.90;;;;;;5046097;28;20065;-76
2023/09/20 03:50:13;;;;;;;9.02;3.22;;;17.30;99.90;;;;;;4996918;28;20581;-76
2023/09/20 03:52:39;;;;;;;10.98;3.30;;;17.30;99.90;;;;;;5012643;28;20050;-76
2023/09/20 03:55:06;;;;;;;8.35;2.88;;;17.30;99.90;;;;;;4996511;28;20043;-76
2023/09/20 03:57:33;;;;;;;5.00;3.03;;;17.30;99.90;;;;;;5012904;28;20104;-76
2023/09/20 03:59:59;;;;;;;10.70;3.95;;;17.30;99.90;;;;;;5014108;28;20060;-75
2023/09/20 04:02:26;;;;;;;9.13;3.47;;;17.30;99.90;;;;;;5013001;28;20057;-81
2023/09/20 04:04:55;;;;;;;12.27;3.63;;;17.30;99.90;;;;;;5013040;28;20096;-76
2023/09/20 04:07:26;;;;;;;7.85;3.42;;;17.20;99.90;;;;;;4980416;28;20046;-76
2023/09/20 04:09:53;;;;;;;10.85;3.65;;;17.20;99.90;;;;;;5012432;28;20092;-76
2023/09/20 04:12:19;;;;;;;10.57;3.22;;;17.30;99.90;;;;;;5012916;28;20164;-76
2023/09/20 04:14:44;;;;;;;9.25;3.35;;;17.30;99.90;;;;;;5012564;28;20057;-76
2023/09/20 04:17:10;;;;;;;9.05;3.50;;;17.20;99.90;;;;;;5014046;28;20052;-76
2023/09/20 04:19:39;;;;;;;13.68;3.80;;;17.30;99.90;;;;;;4980296;28;20050;-76
2023/09/20 04:22:10;;;;;;;10.80;3.90;;;17.30;99.90;;;;;;4996647;28;20100;-76
2023/09/20 04:24:36;;;;;;;11.55;4.10;;;17.30;99.90;;;;;;5012615;28;20407;-76
2023/09/20 04:27:02;;;;;;;10.27;3.50;;;17.30;99.90;;;;;;4996556;28;20104;-75
2023/09/20 04:29:29;;;;;;;12.43;4.20;;;17.20;99.90;;;;;;5012730;28;20480;-79
2023/09/20 04:31:55;;;;;;;11.60;3.75;;;17.20;99.90;;;;;;5013172;28;20100;-75
2023/09/20 04:34:22;;;;;;;8.95;3.70;;;17.20;99.90;;;;;;4999913;28;20163;-74
2023/09/20 04:36:49;;;;;;;8.75;3.50;;;17.20;99.90;;;;;;5003766;28;20050;-75
2023/09/20 04:39:14;;;;;;;11.13;3.78;;;17.20;99.90;;;;;;5016662;28;20045;-75
2023/09/20 04:41:41;;;;;;;15.45;3.97;;;17.20;99.90;;;;;;4996503;28;20046;-75
2023/09/20 04:44:07;;;;;;;11.90;4.10;;;17.10;99.90;;;;;;4996524;28;20050;-74
2023/09/20 04:46:35;;;;;;;13.20;4.20;;;17.20;99.90;;;;;;4995779;28;20054;-76
2023/09/20 04:49:01;;;;;;;11.65;3.95;;;17.10;99.90;;;;;;4995915;28;20502;-76
2023/09/20 04:51:26;;;;;;;12.10;3.63;;;17.10;99.90;;;;;;5011941;28;20041;-75
2023/09/20 04:53:53;;;;;;;13.30;4.05;;;17.00;99.90;;;;;;5012008;28;20053;-76
2023/09/20 04:56:19;;;;;;;10.27;3.53;;;17.00;99.90;;;;;;5011962;28;20081;-76
2023/09/20 04:58:45;;;;;;;9.85;3.60;;;16.90;99.90;;;;;;5011581;28;20058;-76
2023/09/20 05:01:11;;;;;;;12.32;3.70;;;16.80;99.90;;;;;;4995916;28;20045;-76
2023/09/20 05:03:39;;;;;;;10.52;3.80;;;16.90;99.90;;;;;;4995369;28;20096;-76
2023/09/20 05:06:05;;;;;;;12.93;4.75;;;16.80;99.90;;;;;;4995717;28;20080;-76
2023/09/20 05:08:31;;;;;;;15.02;4.30;;;16.80;99.90;;;;;;4995339;28;20133;-76
2023/09/20 05:10:57;;;;;;;8.07;3.70;;;16.70;99.90;;;;;;5012177;28;20136;-74
2023/09/20 05:13:23;;;;;;;13.95;3.58;;;16.60;99.90;;;;;;5011559;28;20556;-65
2023/09/20 05:15:50;;;;;;;13.63;4.10;;;16.60;99.90;;;;;;5012573;28;20480;-65
2023/09/20 05:18:17;;;;;;;14.63;3.78;;;16.60;99.90;;;;;;5012072;28;20132;-69
2023/09/20 05:20:46;;;;;;;9.43;4.03;;;16.60;99.90;;;;;;5012262;28;20088;-69
2023/09/20 05:23:12;;;;;;;;;;;16.60;99.90;;;;;;5011943;28;20046;-69
2023/09/20 05:25:37;;;;;;;;;;;16.60;99.90;;;;;;5012018;28;20010;-70
2023/09/20 05:28:04;;;;;;;;;;;16.60;99.90;;;;;;5012995;28;19922;-74
2023/09/20 05:30:31;;;;;;;;;;;16.50;99.90;;;;;;5028854;28;20016;-76
2023/09/20 05:32:58;;;;;;;;;;;16.60;99.90;;;;;;5011842;28;19921;-76
2023/09/20 05:35:27;;;;;;;;;;;16.60;99.90;;;;;;5013330;28;19921;-76
2023/09/20 05:37:53;;;;;;;;;;;16.60;99.90;;;;;;5012448;28;19928;-77
2023/09/20 05:40:18;;;;;;;;;;;16.60;99.90;;;;;;5011965;28;19921;-76
2023/09/20 05:42:44;;;;;;;;;;;16.60;99.90;;;;;;5012733;28;19921;-76
2023/09/20 05:45:10;;;;;;;;;;;16.60;99.90;;;;;;4998010;28;19947;-75
2023/09/20 05:47:36;;;;;;;;;;;16.60;99.90;;;;;;5015998;28;19925;-76
2023/09/20 05:50:02;;;;;;;;;;;16.70;99.90;;;;;;5013238;28;19929;-67
2023/09/20 05:52:28;;;;;;;;;;;16.70;99.90;;;;;;5011800;28;19921;-67
2023/09/20 05:54:55;;;;;;;;;;;16.70;99.90;;;;;;5011495;28;20331;-67
2023/09/20 05:57:22;;;;;;;;;;;16.70;99.90;;;;;;5013480;28;19921;-66
2023/09/20 05:59:47;;;;;;;;;;;16.70;99.90;;;;;;5012667;28;19928;-67
2023/09/20 06:02:13;;;;;;;;;;;16.80;99.90;;;;;;5012258;28;19921;-68
2023/09/20 06:04:39;;;;;;;;;;;16.80;99.90;;;;;;5012035;28;19928;-68
2023/09/20 06:07:04;;;;;;;;;;;16.80;99.90;;;;;;5028146;28;19921;-66
2023/09/20 06:09:30;;;;;;;;;;;16.80;99.90;;;;;;5012856;28;19991;-66
2023/09/20 06:11:56;;;;;;;;;;;16.80;99.90;;;;;;5012347;28;19928;-65
2023/09/20 06:14:22;;;;;;;;;;;16.80;99.90;;;;;;5012286;28;19926;-67
2023/09/20 06:16:48;;;;;;;;;;;16.80;99.90;;;;;;5011472;28;20291;-66
2023/09/20 06:19:14;;;;;;;;;;;16.90;99.90;;;;;;4995773;28;19921;-66
2023/09/20 06:21:41;;;;;;;;;;;16.90;99.90;;;;;;5011271;28;19922;-68
2023/09/20 06:24:11;;;;;;;;;;;17.00;99.90;;;;;;5012568;28;20307;-67
2023/09/20 06:26:43;;;;;;;;;;;17.00;99.90;;;;;;5012708;28;19921;-67
2023/09/20 06:29:09;;;;;;;;;;;17.00;99.90;;;;;;5012522;28;20367;-69
2023/09/20 06:31:37;;;;;;;;;;;17.00;99.90;;;;;;5011468;28;19928;-70
2023/09/20 06:34:03;;;;;;;;;;;17.00;99.90;;;;;;5014199;28;19979;-70
2023/09/20 06:36:29;;;;;;;;;;;17.00;99.90;;;;;;5014909;28;19922;-70
2023/09/20 06:38:54;;;;;;;;;;;17.00;99.90;;;;;;5015012;28;20256;-70
2023/09/20 06:41:20;;;;;;;;;;;17.00;99.90;;;;;;5016362;28;19932;-70
2023/09/20 06:43:46;;;;;;;;;;;17.00;99.90;;;;;;5031744;28;19929;-70
2023/09/20 06:46:11;;;;;;;;;;;17.00;99.90;;;;;;5031192;28;20422;-70
2023/09/20 06:48:37;;;;;;;;;;;17.00;99.90;;;;;;5012360;28;19927;-69
2023/09/20 06:51:03;;;;;;;;;;;17.00;99.90;;;;;;5021008;28;19921;-70
2023/09/20 06:53:29;;;;;;;;;;;17.00;99.90;;;;;;5033548;28;19960;-70
2023/09/20 06:55:56;;;;;;;;;;;16.90;99.90;;;;;;5047907;28;19987;-70
2023/09/20 06:58:21;;;;;;;;;;;17.00;99.90;;;;;;5013219;28;19936;-70
2023/09/20 07:00:48;;;;;;;;;;;17.00;99.90;;;;;;5030108;28;19921;-70
2023/09/20 07:03:14;;;;;;;;;;;17.10;99.90;;;;;;5046449;28;19944;-70
2023/09/20 07:05:40;;;;;;;;;;;17.00;99.90;;;;;;5016022;28;20312;-70
2023/09/20 07:08:08;;;;;;;;;;;17.00;99.90;;;;;;4997551;28;19921;-71
2023/09/20 07:10:33;;;;;;;;;;;17.10;99.90;;;;;;5014393;28;19928;-68
2023/09/20 07:13:00;;;;;;;;;;;17.10;99.90;;;;;;5014868;28;19921;-70
2023/09/20 07:15:27;;;;;;;;;;;17.10;99.90;;;;;;5014059;28;19971;-69
2023/09/20 07:18:00;;;;;;;;;;;17.10;99.90;;;;;;5014838;28;20405;-70
2023/09/20 07:20:26;;;;;;;;;;;17.10;99.90;;;;;;5013977;28;20370;-68
2023/09/20 07:22:53;;;;;;;;;;;17.10;99.90;;;;;;5015300;28;20020;-70
2023/09/20 07:25:21;;;;;;;;;;;17.20;99.90;;;;;;5012566;28;20355;-69
2023/09/20 07:27:48;;;;;;;;;;;17.20;99.90;;;;;;5014585;28;19925;-65
2023/09/20 07:30:19;;;;;;;;;;;17.20;99.90;;;;;;5014408;28;20375;-67
2023/09/20 07:32:47;;;;;;;;;;;17.30;99.90;;;;;;5015225;28;20016;-68
2023/09/20 07:35:36;;;;;;;;;;;17.40;99.90;;;;;;5014710;28;20341;-68
2023/09/20 07:38:04;;;;;;;;;;;17.50;99.90;;;;;;5013556;28;19921;-67
2023/09/20 07:40:30;;;;;;;;;;;17.70;99.90;;;;;;5014119;28;20313;-67
2023/09/20 07:43:07;;;;;;;;;;;18.00;99.90;;;;;;5014452;28;20409;-66
2023/09/20 07:45:38;;;;;;;;;;;18.40;99.90;;;;;;5015472;28;19925;-67
2023/09/20 07:48:12;;;;;;;;;;;18.60;99.90;;;;;;5014599;28;19928;-66
2023/09/20 07:50:41;;;;;;;;;;;18.80;99.90;;;;;;5013712;28;20023;-67
2023/09/20 07:53:15;;;;;;;;;;;18.80;99.90;;;;;;5014419;28;19921;-67
2023/09/20 07:55:48;;;;;;;;;;;18.80;99.90;;;;;;5045806;28;19928;-69
2023/09/20 07:58:14;;;;;;;;;;;18.80;99.90;;;;;;5044857;28;19922;-67
2023/09/20 08:00:41;;;;;;;;;;;18.70;99.90;;;;;;5046345;28;19922;-68
2023/09/20 08:03:06;;;;;;;;;;;18.80;99.90;;;;;;5015400;28;19921;-67
2023/09/20 08:05:33;;;;;;;;;;;19.10;99.90;;;;;;5014517;28;19928;-66
2023/09/20 08:07:59;;;;;;;;;;;19.60;99.90;;;;;;5013240;28;19927;-66
2023/09/20 08:10:24;;;;;;;;;;;20.40;99.90;;;;;;5013283;28;19922;-66
2023/09/20 08:12:51;;;;;;;;;;;21.10;99.90;;;;;;5013087;28;19929;-67
2023/09/20 08:15:16;;;;;;;;;;;21.80;99.90;;;;;;5013856;28;20107;-67
2023/09/20 08:20:26;;;;;;;;;;;22.70;99.90;;;;;;5011128;28;20405;-68
2023/09/20 09:01:19;;;;;;;;;;;20.40;99.90;;;;;;5040501;28;19976;-68
2023/09/20 09:03:45;;;;;;;;;;;20.20;99.90;;;;;;5012646;28;19921;-69
2023/09/20 09:06:12;;;;;;;;;;;20.10;99.90;;;;;;4994406;28;19931;-66
2023/09/20 09:08:38;;;;;;;;;;;20.10;99.90;;;;;;5014889;28;20000;-68
2023/09/20 09:11:03;;;;;;;;;;;20.00;99.90;;;;;;5018524;28;19944;-67
2023/09/20 09:13:30;;;;;;;;;;;19.90;99.90;;;;;;5016315;28;20488;-69
2023/09/20 09:15:55;;;;;;;;;;;19.80;99.90;;;;;;5012937;28;19921;-68
2023/09/20 09:18:21;;;;;;;;;;;19.70;99.90;;;;;;5012171;28;19979;-68
2023/09/20 09:20:47;;;;;;;;;;;19.60;99.90;;;;;;5013125;28;20275;-68
2023/09/20 09:23:28;;;;;;;;;;;19.50;99.90;;;;;;5011447;28;20067;-68
2023/09/20 09:25:54;;;;;;;;;;;19.50;99.90;;;;;;5012540;28;20023;-68
2023/09/20 09:28:19;;;;;;;;;;;19.50;99.90;;;;;;4995807;28;20056;-68
2023/09/20 09:30:49;;;;;;;;;;;19.40;99.90;;;;;;5013176;28;19965;-68
2023/09/20 09:33:15;;;;;;;;;;;19.40;99.90;;;;;;5012677;28;19921;-68
2023/09/20 09:35:44;;;;;;;;;;;19.40;99.90;;;;;;5010186;28;20064;-68
2023/09/20 09:38:12;;;;;;;;;;;19.40;99.90;;;;;;5008675;28;19929;-67
2023/09/20 09:40:50;;;;;;;;;;;19.50;99.90;;;;;;5010913;28;19991;-68
2023/09/20 09:43:15;;;;;;;;;;;19.40;99.90;;;;;;5011233;28;19929;-68
2023/09/20 09:45:44;;;;;;;;;;;19.40;99.90;;;;;;5011814;28;19947;-68
2023/09/20 09:48:15;;;;;;;;;;;19.40;99.90;;;;;;5010815;28;19921;-68
2023/09/20 09:50:40;;;;;;;;;;;19.40;99.90;;;;;;5011764;28;19921;-68
2023/09/20 09:53:08;;;;;;;;;;;19.40;99.90;;;;;;5011675;28;19932;-68
2023/09/20 09:55:34;;;;;;;;;;;19.40;99.90;;;;;;5010316;28;19965;-68
2023/09/20 09:58:04;;;;;;;;;;;19.40;99.90;;;;;;5012420;28;19956;-68
2023/09/20 10:00:30;;;;;;;;;;;19.50;99.90;;;;;;5012111;28;19925;-68
2023/09/20 10:02:58;;;;;;;;;;;19.50;99.90;;;;;;5011383;28;19922;-69
2023/09/20 10:05:24;;;;;;;;;;;19.50;99.90;;;;;;5010262;28;19928;-68
2023/09/20 10:07:57;;;;;;;;;;;19.40;99.90;;;;;;5014538;28;19928;-67
2023/09/20 10:10:24;;;;;;;;;;;19.40;99.90;;;;;;5015855;28;19980;-67
2023/09/20 10:13:03;;;;;;;;;;;19.40;99.90;;;;;;5043873;28;19953;-66
2023/09/20 10:15:32;;;;;;;;;;;19.40;99.90;;;;;;5014969;28;20379;-65
2023/09/20 10:17:59;;;;;;;;;;;19.50;99.90;;;;;;5048795;28;19968;-66
2023/09/20 10:20:46;;;;;;;;;;;19.50;99.90;;;;;;5011150;28;19917;-66
2023/09/20 10:23:11;;;;;;;;;;;19.50;99.90;;;;;;5015823;28;19925;-67
2023/09/20 10:25:37;;;;;;;;;;;19.60;99.90;;;;;;5013992;28;19975;-67
2023/09/20 10:28:08;;;;;;;;;;;19.60;99.90;;;;;;5016493;28;20283;-67
2023/09/20 10:30:55;;;;;;;;;;;19.70;99.90;;;;;;5015936;28;19921;-65
2023/09/20 10:33:45;;;;;;;;;;;19.70;99.90;;;;;;5015861;28;20018;-68
2023/09/20 10:36:31;;;;;;;;;;;19.90;99.90;;;;;;5013578;28;19921;-67
2023/09/20 10:39:15;;;;;;;;;;;19.90;99.90;;;;;;5014890;28;19921;-63
2023/09/20 10:41:43;;;;;;;;;;;19.90;99.90;;;;;;5015901;28;20543;-65
2023/09/20 10:44:23;;;;;;;;;;;19.90;99.90;;;;;;5015783;28;19968;-65
2023/09/20 10:46:50;;;;;;;;;;;19.90;99.90;;;;;;5016133;28;19991;-64
2023/09/20 10:49:16;;;;;;;;;;;19.90;99.90;;;;;;5014684;28;20346;-63
2023/09/20 10:51:43;;;;;;;;;;;19.90;99.90;;;;;;5015717;28;20215;-65
2023/09/20 10:54:21;;;;;;;;;;;19.90;99.90;;;;;;5015573;28;19921;-66
2023/09/20 10:56:51;;;;;;;;;;;19.90;99.90;;;;;;5015693;28;19922;-66
2023/09/20 10:59:21;;;;;;;;;;;19.80;99.90;;;;;;5014475;28;19925;-67
2023/09/20 11:01:51;;;;;;;;;;;19.90;99.90;;;;;;5015441;28;20326;-66
2023/09/20 11:04:17;;;;;;;;;;;19.90;99.90;;;;;;5015642;28;19928;-66
2023/09/20 11:06:49;;;;;;;;;;;19.80;99.90;;;;;;5015271;28;19968;-66
2023/09/20 11:09:15;;;;;;;;;;;19.80;99.90;;;;;;5015574;28;19921;-66
2023/09/20 11:11:42;;;;;;;;;;;19.80;99.90;;;;;;5030474;28;19921;-66
2023/09/20 11:14:08;;;;;;;;;;;19.80;99.90;;;;;;5015698;28;20220;-66
2023/09/20 11:16:34;;;;;;;;;;;19.80;99.90;;;;;;5015154;28;19933;-66
2023/09/20 11:19:00;;;;;;;;;;;19.80;99.90;;;;;;5046160;28;19921;-66
2023/09/20 11:21:26;;;;;;;;;;;19.80;99.90;;;;;;5015496;28;19922;-66
2023/09/20 11:23:52;;;;;;;;;;;19.80;99.90;;;;;;5015220;28;19944;-67
2023/09/20 11:26:27;;;;;;;;;;;19.70;99.90;;;;;;5016597;28;20275;-66
2023/09/20 11:28:52;;;;;;;;;;;19.70;99.90;;;;;;5016611;28;19921;-67
2023/09/20 11:31:28;;;;;;;;;;;19.70;99.90;;;;;;5014940;28;19925;-66
2023/09/20 11:33:58;;;;;;;;;;;19.70;99.90;;;;;;5015959;28;19921;-67
2023/09/20 11:36:25;;;;;;;;;;;19.80;99.90;;;;;;5047837;28;19928;-66
2023/09/20 11:38:51;;;;;;;;;;;19.70;99.90;;;;;;5013717;28;19919;-66
2023/09/20 11:41:17;;;;;;;;;;;19.80;99.90;;;;;;5013704;28;19929;-67
2023/09/20 11:43:45;;;;;;;;;;;19.80;99.90;;;;;;5013489;28;19921;-67
2023/09/20 11:46:10;;;;;;;;;;;19.80;99.90;;;;;;4997708;28;20385;-66
2023/09/20 11:48:37;;;;;;;;;;;19.80;99.90;;;;;;5014583;28;20019;-67
2023/09/20 11:51:03;;;;;;;;;;;19.90;99.90;;;;;;5014821;28;19922;-67
2023/09/20 11:53:30;;;;;;;;;;;19.90;99.90;;;;;;5030399;28;19921;-67
2023/09/20 11:55:58;;;;;;;;;;;19.90;99.90;;;;;;5013283;28;20078;-67
2023/09/20 11:58:23;;;;;;;;;;;19.90;99.90;;;;;;5013440;28;19921;-66
2023/09/20 12:00:49;;;;;;;;;;;19.90;99.90;;;;;;5030036;28;20025;-67
2023/09/20 12:03:15;;;;;;;;;;;19.90;99.90;;;;;;5046717;28;19921;-67
2023/09/20 12:05:42;;;;;;;;;;;19.90;99.90;;;;;;4997097;28;19948;-67
2023/09/20 12:08:09;;;;;;;;;;;20.00;99.90;;;;;;5013661;28;19968;-67
2023/09/20 12:10:34;;;;;;;;;;;20.00;99.90;;;;;;5014440;28;19922;-66
2023/09/20 12:13:00;;;;;;;;;;;20.00;99.90;;;;;;5014781;28;19921;-66
2023/09/20 12:15:25;;;;;;;;;;;20.00;99.90;;;;;;5014731;28;20016;-65
2023/09/20 12:17:53;;;;;;;;;;;20.00;99.90;;;;;;5013254;28;19932;-66
2023/09/20 12:20:19;;;;;;;;;;;20.00;99.90;;;;;;5014574;28;19922;-67
2023/09/20 12:22:44;;;;;;;;;;;20.00;99.90;;;;;;5045948;28;20286;-66
2023/09/20 12:25:11;;;;;;;;;;;20.00;99.90;;;;;;5014292;28;20016;-66
2023/09/20 12:27:37;;;;;;;;;;;20.10;99.90;;;;;;5045764;28;19925;-66
2023/09/20 12:30:04;;;;;;;;;;;20.10;99.90;;;;;;5013123;28;19922;-67
2023/09/20 12:32:31;;;;;;;;;;;20.10;99.90;;;;;;5012306;28;19928;-66
2023/09/20 12:34:57;;;;;;;;;;;20.20;99.90;;;;;;5028767;28;19925;-66
2023/09/20 12:37:23;;;;;;;;;;;20.20;99.90;;;;;;5014137;28;19921;-67
2023/09/20 12:39:49;;;;;;;;;;;20.20;99.90;;;;;;5013631;28;19921;-67
2023/09/20 12:42:15;;;;;;;;;;;20.20;99.90;;;;;;5013792;28;19922;-68
2023/09/20 12:44:41;;;;;;;;;;;20.30;99.90;;;;;;5013340;28;19925;-67
2023/09/20 12:47:07;;;;;;;;;;;20.20;99.90;;;;;;5013881;28;19944;-68
2023/09/20 12:49:36;;;;;;;;;;;20.30;99.90;;;;;;5013871;28;19921;-68
2023/09/20 12:52:03;;;;;;;;;;;20.30;99.90;;;;;;5012376;28;19948;-68
2023/09/20 12:54:29;;;;;;;;;;;20.40;99.90;;;;;;5012118;28;20368;-68
2023/09/20 12:56:55;;;;;;;;;;;20.40;99.90;;;;;;5013643;28;19936;-68
2023/09/20 12:59:26;;;;;;;;;;;20.40;99.90;;;;;;5010568;28;20040;-68
2023/09/20 13:02:02;;;;;;;;;;;20.50;99.90;;;;;;5012246;28;20245;-68
2023/09/20 13:04:27;;;;;;;;;;;20.50;99.90;;;;;;5013436;28;19975;-68
2023/09/20 13:06:53;;;;;;;;;;;20.50;99.90;;;;;;5011762;28;19921;-68
2023/09/20 13:09:19;;;;;;;;;;;20.60;99.90;;;;;;5042433;28;19921;-68
2023/09/20 13:11:46;;;;;;;;;;;20.60;99.90;;;;;;5012452;28;19921;-67
2023/09/20 13:14:12;;;;;;;;;;;20.60;99.90;;;;;;5010305;28;19972;-69
2023/09/20 13:16:40;;;;;;;;;;;20.70;99.90;;;;;;5012044;28;19928;-68
2023/09/20 13:19:07;;;;;;;;;;;20.70;99.90;;;;;;5012224;28;19921;-68
2023/09/20 13:21:35;;;;;;;;;;;20.70;99.90;;;;;;5012514;28;19976;-68
2023/09/20 13:24:01;;;;;;;;;;;20.80;99.90;;;;;;5011287;28;19921;-68
2023/09/20 13:26:27;;;;;;;;;;;20.80;99.90;;;;;;5012898;28;19925;-67
2023/09/20 13:28:52;;;;;;;;;;;20.80;99.90;;;;;;5044419;28;20011;-68
2023/09/20 13:31:18;;;;;;;;;;;20.80;99.90;;;;;;5012243;28;19975;-68
2023/09/20 13:33:44;;;;;;;;;;;20.90;99.90;;;;;;5012523;28;20005;-74
2023/09/20 13:36:10;;;;;;;;;;;20.90;99.90;;;;;;5013135;28;19922;-74
2023/09/20 13:38:36;;;;;;;;;;;21.00;99.90;;;;;;5013909;28;19928;-74
2023/09/20 13:41:02;;;;;;;;;;;21.20;99.90;;;;;;5029113;28;20378;-72
2023/09/20 13:43:28;;;;;;;;;;;21.30;99.90;;;;;;5016129;28;19936;-70
2023/09/20 13:45:54;;;;;;;;;;;21.30;99.90;;;;;;5021914;28;19929;-71
2023/09/20 13:48:20;;;;;;;;;;;21.40;99.90;;;;;;5020808;28;19928;-71
2023/09/20 13:50:46;;;;;;;;;;;21.40;99.90;;;;;;5016021;28;20310;-74
2023/09/20 13:53:12;;;;;;;;;;;21.40;99.90;;;;;;5012404;28;19980;-72
2023/09/20 13:55:37;;;;;;;;;;;21.40;99.90;;;;;;5013271;28;19922;-71
2023/09/20 13:58:03;;;;;;;;;;;21.40;99.90;;;;;;5011712;28;19921;-72
2023/09/20 14:00:29;;;;;;;;;;;21.40;99.90;;;;;;5012511;28;19921;-72
2023/09/20 14:02:55;;;;;;;;;;;21.40;99.90;;;;;;5011779;28;20389;-72
2023/09/20 14:05:21;;;;;;;;;;;21.40;99.90;;;;;;5012084;28;20012;-73
2023/09/20 14:07:47;;;;;;;;;;;21.30;99.90;;;;;;5012087;28;19921;-71
2023/09/20 14:10:14;;;;;;;;;;;21.30;99.90;;;;;;5011492;28;19921;-71
2023/09/20 14:12:43;;;;;;;;;;;21.30;99.90;;;;;;5012047;28;20008;-71
2023/09/20 14:15:12;;;;;;;;;;;21.30;99.90;;;;;;5011590;28;19921;-72
2023/09/20 14:17:40;;;;;;;;;;;21.30;99.90;;;;;;5012038;28;19928;-72